createdAt,value
2019-03-09T00:01:07.071Z,76.70
2019-03-09T00:03:35.169Z,76.80
2019-03-09T00:06:03.605Z,75.30
2019-03-09T00:08:35.290Z,76.30
2019-03-09T00:11:03.371Z,76.80
2019-03-09T00:13:31.585Z,75.80
2019-03-09T00:15:59.783Z,75.80
2019-03-09T00:18:29.077Z,76.20
2019-03-09T00:20:57.200Z,76.40
2019-03-09T00:23:44.787Z,76.40
2019-03-09T00:26:20.493Z,75.60
2019-03-09T00:29:03.250Z,76.30
2019-03-09T00:31:53.027Z,76.90
2019-03-09T00:34:21.405Z,76.00
2019-03-09T00:36:49.524Z,76.60
2019-03-09T00:39:17.617Z,76.90
2019-03-09T00:41:45.719Z,76.60
2019-03-09T00:44:13.682Z,77.10
2019-03-09T00:46:41.892Z,76.80
2019-03-09T00:49:11.285Z,77.10
2019-03-09T00:51:39.923Z,77.80
2019-03-09T00:54:08.150Z,77.00
2019-03-09T00:56:36.466Z,77.30
2019-03-09T00:59:04.640Z,77.50
2019-03-09T01:01:33.443Z,77.60
2019-03-09T01:04:01.371Z,78.10
2019-03-09T01:06:29.515Z,77.70
2019-03-09T01:08:57.596Z,78.80
2019-03-09T01:11:26.050Z,77.90
2019-03-09T01:13:54.032Z,78.40
2019-03-09T01:16:22.202Z,78.70
2019-03-09T01:18:50.251Z,78.40
2019-03-09T01:21:18.234Z,79.30
2019-03-09T01:23:46.334Z,79.10
2019-03-09T01:26:14.589Z,77.60
2019-03-09T01:28:42.610Z,77.50
2019-03-09T01:31:11.172Z,78.00
2019-03-09T01:33:39.223Z,78.40
2019-03-09T01:36:07.228Z,78.10
2019-03-09T01:38:35.333Z,78.30
2019-03-09T01:41:03.440Z,77.80
2019-03-09T01:43:32.155Z,78.00
2019-03-09T01:46:00.220Z,77.60
2019-03-09T01:48:28.541Z,77.00
2019-03-09T01:50:56.420Z,77.00
2019-03-09T01:53:24.920Z,77.40
2019-03-09T01:55:52.951Z,78.70
2019-03-09T01:58:21.280Z,78.40
2019-03-09T02:00:49.127Z,78.00
2019-03-09T02:03:17.588Z,79.10
2019-03-09T02:05:45.592Z,79.00
2019-03-09T02:08:13.742Z,78.10
2019-03-09T02:10:41.754Z,79.80
2019-03-09T02:13:09.841Z,80.00
2019-03-09T02:15:38.020Z,79.90
2019-03-09T02:18:06.126Z,79.10
2019-03-09T02:20:34.853Z,80.10
2019-03-09T02:23:02.942Z,78.80
2019-03-09T02:25:31.236Z,80.00
2019-03-09T02:27:59.306Z,79.40
2019-03-09T02:30:27.708Z,80.80
2019-03-09T02:32:55.812Z,80.80
2019-03-09T02:35:23.909Z,78.30
2019-03-09T02:37:51.923Z,79.60
2019-03-09T02:40:27.633Z,78.40
2019-03-09T02:42:56.079Z,78.70
2019-03-09T02:45:25.044Z,78.30
2019-03-09T02:47:53.094Z,79.00
2019-03-09T02:50:21.363Z,78.40
2019-03-09T02:52:49.351Z,78.60
2019-03-09T02:55:17.255Z,79.60
2019-03-09T02:57:45.961Z,80.70
2019-03-09T03:00:15.839Z,80.70
2019-03-09T03:02:50.946Z,79.80
2019-03-09T03:05:18.908Z,80.50
2019-03-09T03:07:48.511Z,81.60
2019-03-09T03:10:16.536Z,81.60
2019-03-09T03:12:44.673Z,81.50
2019-03-09T03:15:26.345Z,82.80
2019-03-09T03:17:54.349Z,82.30
2019-03-09T03:20:22.600Z,83.80
2019-03-09T03:22:50.743Z,84.50
2019-03-09T03:25:19.172Z,83.60
2019-03-09T03:27:47.430Z,84.70
2019-03-09T03:30:15.926Z,85.30
2019-03-09T03:32:43.856Z,85.70
2019-03-09T03:35:12.018Z,85.40
2019-03-09T03:37:39.995Z,86.30
2019-03-09T03:40:08.605Z,86.40
2019-03-09T03:42:37.050Z,86.60
2019-03-09T03:45:07.085Z,86.50
2019-03-09T03:47:35.656Z,88.40
2019-03-09T03:50:03.723Z,88.20
2019-03-09T03:52:31.674Z,88.60
2019-03-09T03:54:59.621Z,89.20
2019-03-09T03:57:29.173Z,90.60
2019-03-09T03:59:57.512Z,89.90
2019-03-09T04:02:25.497Z,90.80
2019-03-09T04:04:53.740Z,92.20
2019-03-09T04:07:21.791Z,95.30
2019-03-09T04:09:50.087Z,95.20
2019-03-09T04:12:18.070Z,95.00
2019-03-09T04:14:46.519Z,96.00
2019-03-09T04:17:14.569Z,97.60
2019-03-09T04:19:42.646Z,97.70
2019-03-09T04:22:10.714Z,97.40
2019-03-09T04:24:38.939Z,96.70
2019-03-09T04:27:07.097Z,96.90
2019-03-09T04:29:35.076Z,98.20
2019-03-09T04:32:02.964Z,99.40
2019-03-09T04:34:31.283Z,99.60
2019-03-09T04:37:00.970Z,99.90
2019-03-09T04:39:29.268Z,99.90
2019-03-09T04:41:57.231Z,99.90
2019-03-09T04:44:27.230Z,99.90
2019-03-09T04:46:55.777Z,99.90
2019-03-09T04:49:26.290Z,99.90
2019-03-09T04:51:54.537Z,99.90
2019-03-09T04:54:22.518Z,99.90
2019-03-09T04:56:50.540Z,99.90
2019-03-09T04:59:18.633Z,99.90
2019-03-09T05:01:46.551Z,99.90
2019-03-09T05:04:50.443Z,99.90
2019-03-09T05:07:44.113Z,99.90
2019-03-09T05:10:58.386Z,99.90
2019-03-09T05:13:44.407Z,99.90
2019-03-09T05:16:12.819Z,99.90
2019-03-09T05:18:40.690Z,99.90
2019-03-09T05:21:08.849Z,99.90
2019-03-09T05:23:37.022Z,99.90
2019-03-09T05:26:04.973Z,99.90
2019-03-09T05:28:33.466Z,99.90
2019-03-09T05:31:01.683Z,99.90
2019-03-09T05:33:29.749Z,99.90
2019-03-09T05:35:57.861Z,99.90
2019-03-09T05:38:25.973Z,99.90
2019-03-09T05:40:53.913Z,99.90
2019-03-09T05:43:22.028Z,99.90
2019-03-09T05:45:50.069Z,99.90
2019-03-09T05:48:18.201Z,99.90
2019-03-09T05:50:46.641Z,99.90
2019-03-09T05:53:22.610Z,99.90
2019-03-09T05:55:50.774Z,99.90
2019-03-09T05:58:18.899Z,99.90
2019-03-09T06:00:47.102Z,99.90
2019-03-09T06:03:15.499Z,99.90
2019-03-09T06:05:47.034Z,99.90
2019-03-09T06:08:17.902Z,99.90
2019-03-09T06:10:46.150Z,99.90
2019-03-09T06:13:14.583Z,99.90
2019-03-09T06:15:43.447Z,99.90
2019-03-09T06:18:11.521Z,99.90
2019-03-09T06:20:39.886Z,99.90
2019-03-09T06:23:07.754Z,99.90
2019-03-09T06:25:35.661Z,99.90
2019-03-09T06:28:03.740Z,99.90
2019-03-09T06:30:31.667Z,99.90
2019-03-09T06:33:28.393Z,99.90
2019-03-09T06:37:01.606Z,99.90
2019-03-09T06:39:44.222Z,99.90
2019-03-09T06:42:46.398Z,99.90
2019-03-09T06:45:16.511Z,99.90
2019-03-09T06:47:44.684Z,99.90
2019-03-09T06:50:17.677Z,99.90
2019-03-09T06:52:45.870Z,99.90
2019-03-09T06:55:14.253Z,99.90
2019-03-09T06:57:42.518Z,99.90
2019-03-09T07:00:42.920Z,99.90
2019-03-09T07:03:12.417Z,99.90
2019-03-09T07:05:40.421Z,99.90
2019-03-09T07:08:08.583Z,99.90
2019-03-09T07:10:36.588Z,99.90
2019-03-09T07:13:04.759Z,99.90
2019-03-09T07:15:36.155Z,99.90
2019-03-09T07:18:13.343Z,99.90
2019-03-09T07:20:41.337Z,99.90
2019-03-09T07:23:09.369Z,99.90
2019-03-09T07:25:37.359Z,99.90
2019-03-09T07:28:08.583Z,99.90
2019-03-09T07:30:36.995Z,99.90
2019-03-09T07:33:05.840Z,99.90
2019-03-09T07:35:36.951Z,99.90
2019-03-09T07:38:04.978Z,99.90
2019-03-09T07:40:33.179Z,99.90
2019-03-09T07:43:01.259Z,99.90
2019-03-09T07:45:29.578Z,99.90
2019-03-09T07:47:57.692Z,99.90
2019-03-09T07:50:26.382Z,99.90
2019-03-09T07:52:54.499Z,99.90
2019-03-09T07:55:22.518Z,99.90
2019-03-09T07:57:50.556Z,99.90
2019-03-09T08:00:19.710Z,99.90
2019-03-09T08:02:47.761Z,99.90
2019-03-09T08:05:16.779Z,99.90
2019-03-09T08:07:44.984Z,99.90
2019-03-09T08:10:18.472Z,99.90
2019-03-09T08:12:47.288Z,99.90
2019-03-09T08:15:17.729Z,99.90
2019-03-09T08:17:46.306Z,99.90
2019-03-09T08:20:15.215Z,99.90
2019-03-09T08:22:43.535Z,99.90
2019-03-09T08:25:13.262Z,99.90
2019-03-09T08:27:41.669Z,99.90
2019-03-09T08:30:17.990Z,99.90
2019-03-09T08:32:47.307Z,99.90
2019-03-09T08:35:17.512Z,99.90
2019-03-09T08:37:45.779Z,99.90
2019-03-09T08:40:15.607Z,99.90
2019-03-09T08:42:44.184Z,99.90
2019-03-09T08:45:15.119Z,99.90
2019-03-09T08:47:51.665Z,99.90
2019-03-09T08:50:18.766Z,99.90
2019-03-09T08:52:47.057Z,99.90
2019-03-09T08:55:17.839Z,99.90
2019-03-09T08:57:46.181Z,99.90
2019-03-09T09:00:30.708Z,99.90
2019-03-09T09:02:59.083Z,99.90
2019-03-09T09:05:27.528Z,99.90
2019-03-09T09:07:55.623Z,99.90
2019-03-09T09:10:24.363Z,99.90
2019-03-09T09:12:52.772Z,99.90
2019-03-09T09:15:21.638Z,99.90
2019-03-09T09:17:49.764Z,99.90
2019-03-09T09:20:19.452Z,99.90
2019-03-09T09:22:47.456Z,99.90
2019-03-09T09:25:15.656Z,99.90
2019-03-09T09:27:43.998Z,99.90
2019-03-09T09:30:19.618Z,99.90
2019-03-09T09:32:47.681Z,99.90
2019-03-09T09:35:16.039Z,99.90
2019-03-09T09:37:44.090Z,99.90
2019-03-09T09:40:14.793Z,99.90
2019-03-09T09:42:48.559Z,99.90
2019-03-09T09:45:17.385Z,99.90
2019-03-09T09:47:45.545Z,99.90
2019-03-09T09:50:14.423Z,99.90
2019-03-09T09:52:43.045Z,99.90
2019-03-09T09:55:13.200Z,99.90
2019-03-09T09:57:41.386Z,99.90
2019-03-09T10:00:19.664Z,99.90
2019-03-09T10:02:47.851Z,99.90
2019-03-09T10:05:16.721Z,99.90
2019-03-09T10:07:45.267Z,99.90
2019-03-09T10:10:15.960Z,99.90
2019-03-09T10:12:44.360Z,99.90
2019-03-09T10:15:24.029Z,99.90
2019-03-09T10:17:52.049Z,99.90
2019-03-09T10:20:21.555Z,99.90
2019-03-09T10:22:51.000Z,99.90
2019-03-09T10:25:19.104Z,99.90
2019-03-09T10:27:47.430Z,99.90
2019-03-09T10:30:20.404Z,99.90
2019-03-09T10:32:48.546Z,99.90
2019-03-09T10:35:16.927Z,99.90
2019-03-09T10:37:45.076Z,99.90
2019-03-09T10:40:15.348Z,99.90
2019-03-09T10:42:44.910Z,99.90
2019-03-09T10:45:13.984Z,99.90
2019-03-09T10:47:42.513Z,99.90
2019-03-09T10:50:13.336Z,99.90
2019-03-09T10:52:44.032Z,99.90
2019-03-09T10:55:17.660Z,99.90
2019-03-09T10:57:45.975Z,99.90
2019-03-09T11:00:20.955Z,99.90
2019-03-09T11:02:49.587Z,99.90
2019-03-09T11:05:17.767Z,99.90
2019-03-09T11:07:46.037Z,99.90
2019-03-09T11:10:14.355Z,99.90
2019-03-09T11:12:44.063Z,99.90
2019-03-09T11:15:12.550Z,99.90
2019-03-09T11:17:41.707Z,99.90
2019-03-09T11:20:11.447Z,99.90
2019-03-09T11:22:39.622Z,99.90
2019-03-09T11:25:10.720Z,99.90
2019-03-09T11:27:38.797Z,99.90
2019-03-09T11:30:15.647Z,99.90
2019-03-09T11:32:44.523Z,99.90
2019-03-09T11:35:13.242Z,99.90
2019-03-09T11:37:42.041Z,99.90
2019-03-09T11:40:10.269Z,99.90
2019-03-09T11:42:38.659Z,99.90
2019-03-09T11:45:08.537Z,99.90
2019-03-09T11:47:36.694Z,99.90
2019-03-09T11:50:06.187Z,99.90
2019-03-09T11:52:34.216Z,99.90
2019-03-09T11:55:02.411Z,99.90
2019-03-09T11:57:30.860Z,99.90
2019-03-09T11:59:59.307Z,99.90
2019-03-09T12:02:27.490Z,99.90
2019-03-09T12:04:56.295Z,99.90
2019-03-09T12:07:24.605Z,99.90
2019-03-09T12:09:53.568Z,99.90
2019-03-09T12:12:22.107Z,99.90
2019-03-09T12:14:50.383Z,99.90
2019-03-09T12:17:18.514Z,99.90
2019-03-09T12:19:46.865Z,99.90
2019-03-09T12:22:15.075Z,99.90
2019-03-09T12:24:43.890Z,99.90
2019-03-09T12:27:12.500Z,99.90
2019-03-09T12:29:40.655Z,99.90
2019-03-09T12:32:09.128Z,99.90
2019-03-09T12:34:37.146Z,99.90
2019-03-09T12:37:05.407Z,99.90
2019-03-09T12:39:34.049Z,99.90
2019-03-09T12:42:03.226Z,99.90
2019-03-09T12:44:32.038Z,99.90
2019-03-09T12:47:00.633Z,99.90
2019-03-09T12:49:29.236Z,99.90
2019-03-09T12:51:57.680Z,99.90
2019-03-09T12:54:27.375Z,99.90
2019-03-09T12:56:55.724Z,99.90
2019-03-09T12:59:29.182Z,99.90
2019-03-09T13:01:57.298Z,99.90
2019-03-09T13:04:25.535Z,99.90
2019-03-09T13:06:54.443Z,99.90
2019-03-09T13:09:23.555Z,99.90
2019-03-09T13:11:51.631Z,99.90
2019-03-09T13:14:21.003Z,99.90
2019-03-09T13:16:51.999Z,99.90
2019-03-09T13:19:23.210Z,99.90
2019-03-09T13:21:51.463Z,99.90
2019-03-09T13:24:20.104Z,99.90
2019-03-09T13:26:49.239Z,99.90
2019-03-09T13:29:17.554Z,99.90
2019-03-09T13:31:47.437Z,99.90
2019-03-09T13:34:15.425Z,99.90
2019-03-09T13:36:43.461Z,99.90
2019-03-09T13:39:11.772Z,99.90
2019-03-09T13:41:39.962Z,99.90
2019-03-09T13:44:08.137Z,99.90
2019-03-09T13:46:36.073Z,99.90
2019-03-09T13:49:04.034Z,99.90
2019-03-09T13:51:32.028Z,99.90
2019-03-09T13:54:00.490Z,99.90
2019-03-09T13:56:28.714Z,99.90
2019-03-09T13:58:56.672Z,99.90
2019-03-09T14:01:24.725Z,99.90
2019-03-09T14:03:53.329Z,99.90
2019-03-09T14:06:21.388Z,99.90
2019-03-09T14:08:49.620Z,99.90
2019-03-09T14:11:17.621Z,99.90
2019-03-09T14:13:45.712Z,99.90
2019-03-09T14:16:13.677Z,99.90
2019-03-09T14:18:43.108Z,99.90
2019-03-09T14:21:15.358Z,99.90
2019-03-09T14:23:44.727Z,99.90
2019-03-09T14:26:13.972Z,99.90
2019-03-09T14:28:43.918Z,99.90
2019-03-09T14:31:12.464Z,99.90
2019-03-09T14:33:40.883Z,99.90
2019-03-09T14:36:09.076Z,99.90
2019-03-09T14:38:37.438Z,99.90
2019-03-09T14:41:05.723Z,99.90
2019-03-09T14:43:33.990Z,99.90
2019-03-09T14:46:02.058Z,99.90
2019-03-09T14:48:30.413Z,99.90
2019-03-09T14:50:58.591Z,99.90
2019-03-09T14:53:27.953Z,99.90
2019-03-09T14:55:58.293Z,99.90
2019-03-09T14:58:26.283Z,99.90
2019-03-09T15:00:54.709Z,99.90
2019-03-09T15:03:22.692Z,99.90
2019-03-09T15:05:50.976Z,99.90
2019-03-09T15:08:19.962Z,99.90
2019-03-09T15:10:48.491Z,99.90
2019-03-09T15:13:16.931Z,99.90
2019-03-09T15:15:45.307Z,99.90
2019-03-09T15:18:13.335Z,99.90
2019-03-09T15:20:41.312Z,99.90
2019-03-09T15:23:09.639Z,99.90
2019-03-09T15:25:38.032Z,99.90
2019-03-09T15:28:06.411Z,99.90
2019-03-09T15:30:35.066Z,99.90
2019-03-09T15:33:04.055Z,99.90
2019-03-09T15:35:32.862Z,99.90
2019-03-09T15:38:01.732Z,99.90
2019-03-09T15:40:30.001Z,99.90
2019-03-09T15:42:58.268Z,99.90
2019-03-09T15:45:27.128Z,99.90
2019-03-09T15:47:55.323Z,99.90
2019-03-09T15:50:23.886Z,99.90
2019-03-09T15:52:52.482Z,99.90
2019-03-09T15:55:22.620Z,99.90
2019-03-09T15:57:51.180Z,99.90
2019-03-09T16:00:20.144Z,99.90
2019-03-09T16:02:49.115Z,99.90
2019-03-09T16:05:17.798Z,99.90
2019-03-09T16:07:46.382Z,99.90
2019-03-09T16:10:17.080Z,99.90
2019-03-09T16:12:44.955Z,99.90
2019-03-09T16:15:14.140Z,99.90
2019-03-09T16:17:42.311Z,99.90
2019-03-09T16:20:13.603Z,99.90
2019-03-09T16:22:41.797Z,99.90
2019-03-09T16:25:10.863Z,99.90
2019-03-09T16:27:39.393Z,99.90
2019-03-09T16:30:11.278Z,99.90
2019-03-09T16:32:40.315Z,99.90
2019-03-09T16:35:08.466Z,99.90
2019-03-09T16:37:36.657Z,99.90
2019-03-09T16:40:06.276Z,99.90
2019-03-09T16:42:34.308Z,99.90
2019-03-09T16:45:02.575Z,99.90
2019-03-09T16:47:30.573Z,99.90
2019-03-09T16:49:58.741Z,99.90
2019-03-09T16:52:26.832Z,99.90
2019-03-09T16:54:54.905Z,99.90
2019-03-09T16:57:23.045Z,99.90
2019-03-09T16:59:51.104Z,99.90
2019-03-09T17:02:27.525Z,99.90
2019-03-09T17:04:49.295Z,99.90
2019-03-09T17:07:17.427Z,99.90
2019-03-09T17:09:45.813Z,99.90
2019-03-09T17:12:14.232Z,99.90
2019-03-09T17:14:42.431Z,99.90
2019-03-09T17:17:10.727Z,99.90
2019-03-09T17:19:38.826Z,99.90
2019-03-09T17:22:07.128Z,99.90
2019-03-09T17:24:35.212Z,99.90
2019-03-09T17:27:03.172Z,99.90
2019-03-09T17:29:31.241Z,99.90
2019-03-09T17:31:59.287Z,99.90
2019-03-09T17:34:28.892Z,99.90
2019-03-09T17:36:56.890Z,99.90
2019-03-09T17:39:25.144Z,99.90
2019-03-09T17:41:53.202Z,99.90
2019-03-09T17:44:21.869Z,99.90
2019-03-09T17:46:49.777Z,99.90
2019-03-09T17:49:18.112Z,99.90
2019-03-09T17:51:46.273Z,99.90
2019-03-09T17:54:14.377Z,99.90
2019-03-09T17:56:42.478Z,99.90
2019-03-09T17:59:10.761Z,99.90
2019-03-09T18:01:39.107Z,99.90
2019-03-09T18:04:07.205Z,99.90
2019-03-09T18:06:35.224Z,99.90
2019-03-09T18:09:05.237Z,99.90
2019-03-09T18:11:33.468Z,99.90
2019-03-09T18:14:06.980Z,99.90
2019-03-09T18:16:31.671Z,99.90
2019-03-09T18:19:01.371Z,99.90
2019-03-09T18:21:29.711Z,99.90
2019-03-09T18:23:58.157Z,99.90
2019-03-09T18:26:26.213Z,99.90
2019-03-09T18:28:54.295Z,99.90
2019-03-09T18:31:22.726Z,99.80
2019-03-09T18:33:50.896Z,99.50
2019-03-09T18:36:19.080Z,99.30
2019-03-09T18:38:47.153Z,99.30
2019-03-09T18:41:15.706Z,99.30
2019-03-09T18:43:44.058Z,99.50
2019-03-09T18:46:13.822Z,99.80
2019-03-09T18:48:42.321Z,99.90
2019-03-09T18:51:10.632Z,99.50
2019-03-09T18:53:38.985Z,98.80
2019-03-09T18:56:07.543Z,98.70
2019-03-09T18:58:35.565Z,98.70
2019-03-09T19:01:03.971Z,98.70
2019-03-09T19:03:32.689Z,98.50
2019-03-09T19:06:00.772Z,99.00
2019-03-09T19:08:29.112Z,98.70
2019-03-09T19:10:57.140Z,98.80
2019-03-09T19:13:25.466Z,99.00
2019-03-09T19:15:53.565Z,99.20
2019-03-09T19:18:21.590Z,99.00
2019-03-09T19:20:50.013Z,99.40
2019-03-09T19:23:18.117Z,99.50
2019-03-09T19:25:46.292Z,99.20
2019-03-09T19:28:14.375Z,99.40
2019-03-09T19:30:42.760Z,99.00
2019-03-09T19:33:11.216Z,98.80
2019-03-09T19:35:39.444Z,99.10
2019-03-09T19:38:08.065Z,98.80
2019-03-09T19:40:36.057Z,98.60
2019-03-09T19:43:04.231Z,98.30
2019-03-09T19:45:32.376Z,98.10
2019-03-09T19:48:01.085Z,98.10
2019-03-09T19:50:29.357Z,98.30
2019-03-09T19:52:59.040Z,97.90
2019-03-09T19:55:27.653Z,98.40
2019-03-09T19:57:56.075Z,98.30
2019-03-09T20:00:24.824Z,98.20
2019-03-09T20:02:53.048Z,98.50
2019-03-09T20:05:21.797Z,99.40
2019-03-09T20:07:50.319Z,99.50
2019-03-09T20:10:18.514Z,99.40
2019-03-09T20:12:46.709Z,99.90
2019-03-09T20:15:15.823Z,99.80
2019-03-09T20:17:45.882Z,99.60
2019-03-09T20:20:14.328Z,99.80
2019-03-09T20:22:42.501Z,99.90
2019-03-09T20:25:10.603Z,99.90
2019-03-09T20:27:38.942Z,99.90
2019-03-09T20:30:07.906Z,99.90
2019-03-09T20:32:36.584Z,99.90
2019-03-09T20:35:06.082Z,99.90
2019-03-09T20:37:34.245Z,99.90
2019-03-09T20:40:02.445Z,99.90
2019-03-09T20:42:30.671Z,99.90
2019-03-09T20:44:59.198Z,99.90
2019-03-09T20:47:27.976Z,99.90
2019-03-09T20:49:56.048Z,99.90
2019-03-09T20:52:24.255Z,99.90
2019-03-09T20:54:52.530Z,99.90
2019-03-09T20:57:20.992Z,99.90
2019-03-09T20:59:49.052Z,99.90
2019-03-09T21:02:17.357Z,99.90
2019-03-09T21:04:45.841Z,99.90
2019-03-09T21:07:13.890Z,99.90
2019-03-09T21:09:42.099Z,99.90
2019-03-09T21:12:10.254Z,99.90
2019-03-09T21:14:38.796Z,99.90
2019-03-09T21:17:07.294Z,99.90
2019-03-09T21:19:35.508Z,99.90
2019-03-09T21:22:03.933Z,99.90
2019-03-09T21:24:32.027Z,99.90
2019-03-09T21:27:00.811Z,99.90
2019-03-09T21:29:29.317Z,99.90
2019-03-09T21:31:57.544Z,99.90
2019-03-09T21:34:26.059Z,99.90
2019-03-09T21:36:54.134Z,99.90
2019-03-09T21:39:22.285Z,99.90
2019-03-09T21:41:50.770Z,99.90
2019-03-09T21:44:18.841Z,99.90
2019-03-09T21:46:47.347Z,99.90
2019-03-09T21:49:15.523Z,99.90
2019-03-09T21:51:43.598Z,99.90
2019-03-09T21:54:12.279Z,99.90
2019-03-09T21:56:40.339Z,99.90
2019-03-09T21:59:08.837Z,99.90
2019-03-09T22:01:36.992Z,99.90
2019-03-09T22:04:05.628Z,99.90
2019-03-09T22:06:39.778Z,99.90
2019-03-09T22:09:09.437Z,99.90
2019-03-09T22:11:37.835Z,99.90
2019-03-09T22:14:06.065Z,99.90
2019-03-09T22:16:34.051Z,99.90
2019-03-09T22:19:02.254Z,99.90
2019-03-09T22:21:30.407Z,99.90
2019-03-09T22:23:58.419Z,99.90
2019-03-09T22:26:26.875Z,99.90
2019-03-09T22:28:55.127Z,99.90
2019-03-09T22:31:23.454Z,99.90
2019-03-09T22:33:51.670Z,99.90
2019-03-09T22:36:19.868Z,99.90
2019-03-09T22:38:48.518Z,99.90
2019-03-09T22:41:17.342Z,99.90
2019-03-09T22:43:45.704Z,99.90
2019-03-09T22:46:14.491Z,99.90
2019-03-09T22:48:43.260Z,99.90
2019-03-09T22:51:14.417Z,99.90
2019-03-09T22:53:43.129Z,99.90
2019-03-09T22:56:11.786Z,99.90
2019-03-09T22:58:40.059Z,99.90
2019-03-09T23:01:08.902Z,99.90
2019-03-09T23:03:38.769Z,99.90
2019-03-09T23:06:07.223Z,99.90
2019-03-09T23:08:35.575Z,99.90
2019-03-09T23:11:04.624Z,99.90
2019-03-09T23:13:36.679Z,99.90
2019-03-09T23:16:05.448Z,99.90
2019-03-09T23:18:34.624Z,99.90
2019-03-09T23:21:02.818Z,99.90
2019-03-09T23:23:31.639Z,99.90
2019-03-09T23:26:02.216Z,99.90
2019-03-09T23:28:48.848Z,99.90
2019-03-09T23:31:20.313Z,99.90
2019-03-09T23:33:49.116Z,99.90
2019-03-09T23:36:20.127Z,99.90
2019-03-09T23:38:49.916Z,99.90
2019-03-09T23:41:20.792Z,99.90
2019-03-09T23:43:49.522Z,99.90
2019-03-09T23:46:19.254Z,99.90
2019-03-09T23:48:51.763Z,99.90
2019-03-09T23:51:21.215Z,99.90
2019-03-09T23:53:49.970Z,99.90
2019-03-09T23:56:20.750Z,99.90
2019-03-09T23:58:49.159Z,99.90
